createdAt,value
2022-10-18T03:57:25.640Z,12.57
2022-10-18T04:00:28.121Z,11.98
2022-10-18T04:03:30.394Z,12.63
2022-10-18T04:06:32.420Z,12.50
2022-10-18T04:09:34.709Z,11.77
2022-10-18T04:12:36.785Z,12.63
2022-10-18T04:15:39.198Z,11.60
2022-10-18T04:18:41.385Z,12.37
2022-10-18T04:21:43.685Z,13.65
2022-10-18T04:24:45.725Z,12.20
2022-10-18T04:27:48.045Z,13.93
2022-10-18T04:30:53.526Z,12.85
2022-10-18T04:33:55.818Z,12.48
2022-10-18T04:36:57.870Z,12.48
2022-10-18T04:40:00.183Z,12.88
2022-10-18T04:43:02.302Z,11.82
2022-10-18T04:46:04.646Z,12.25
2022-10-18T04:49:06.689Z,12.93
2022-10-18T04:52:09.294Z,12.93
2022-10-18T04:55:11.308Z,13.77
2022-10-18T04:58:13.686Z,13.18
2022-10-18T05:01:17.066Z,13.27
2022-10-18T05:04:19.461Z,13.40
2022-10-18T05:07:21.483Z,13.48
2022-10-18T05:10:23.766Z,13.05
2022-10-18T05:13:26.320Z,13.62
2022-10-18T05:16:28.735Z,13.48
2022-10-18T05:19:30.810Z,14.10
2022-10-18T05:22:33.377Z,13.90
2022-10-18T05:25:38.713Z,13.52
2022-10-18T05:28:41.587Z,13.77
2022-10-18T05:31:43.732Z,14.55
2022-10-18T05:34:46.051Z,14.38
2022-10-18T05:40:50.650Z,14.82
2022-10-18T05:43:52.710Z,13.32
2022-10-18T05:46:55.017Z,13.88
2022-10-18T05:49:57.458Z,14.45
2022-10-18T05:53:11.851Z,15.27
2022-10-18T05:56:14.569Z,14.85
2022-10-18T05:59:16.869Z,17.20
2022-10-18T06:02:19.157Z,17.30
2022-10-18T06:05:21.672Z,16.87
2022-10-18T06:08:23.760Z,17.75
2022-10-18T06:11:26.446Z,18.02
2022-10-18T06:14:28.477Z,17.30
2022-10-18T06:17:32.614Z,18.65
2022-10-18T06:20:34.869Z,17.35
2022-10-18T06:23:37.207Z,17.35
2022-10-18T06:26:39.293Z,18.00
2022-10-18T06:29:41.639Z,20.33
2022-10-18T06:32:43.732Z,17.62
2022-10-18T06:36:07.069Z,18.30
2022-10-18T06:39:10.490Z,17.90
2022-10-18T06:42:12.762Z,19.70
2022-10-18T06:45:15.897Z,19.25
2022-10-18T06:51:22.275Z,18.00
2022-10-18T06:54:24.573Z,18.62
2022-10-18T06:57:26.706Z,18.65
2022-10-18T07:00:29.070Z,20.12
2022-10-18T07:03:31.138Z,19.55
2022-10-18T07:06:33.459Z,19.42
2022-10-18T07:09:35.835Z,19.98
2022-10-18T07:12:40.461Z,19.50
2022-10-18T07:15:42.693Z,20.95
2022-10-18T07:18:49.163Z,20.98
2022-10-18T07:21:51.193Z,22.17
2022-10-18T07:24:53.637Z,19.98
2022-10-18T07:27:55.929Z,21.75
2022-10-18T07:31:06.106Z,23.48
2022-10-18T07:34:12.213Z,21.10
2022-10-18T07:37:14.514Z,19.87
2022-10-18T07:40:16.685Z,23.75
2022-10-18T07:43:18.957Z,19.33
2022-10-18T07:46:22.179Z,19.27
2022-10-18T07:49:24.508Z,42.60
2022-10-18T07:52:26.539Z,20.67
2022-10-18T07:55:28.839Z,18.75
2022-10-18T07:58:32.584Z,18.52
2022-10-18T08:01:34.948Z,18.25
2022-10-18T08:04:37.350Z,19.58
2022-10-18T08:07:39.587Z,20.08
2022-10-18T08:10:41.989Z,19.92
2022-10-18T08:13:46.000Z,21.25
2022-10-18T08:16:48.303Z,21.00
2022-10-18T08:20:04.662Z,19.62
2022-10-18T08:23:12.872Z,20.23
2022-10-18T08:26:17.467Z,50.12
2022-10-18T08:29:26.732Z,20.70
2022-10-18T08:32:31.156Z,15.90
2022-10-18T08:35:33.774Z,15.25
2022-10-18T08:38:37.225Z,15.48
2022-10-18T08:42:06.341Z,15.43
2022-10-18T08:45:17.728Z,14.48
2022-10-18T08:48:49.448Z,14.27
2022-10-18T08:51:52.336Z,14.20
2022-10-18T08:55:29.784Z,13.55
2022-10-18T08:58:33.630Z,13.27
2022-10-18T09:01:52.517Z,13.02
2022-10-18T09:05:01.313Z,13.07
2022-10-18T09:08:21.935Z,12.02
2022-10-18T09:11:38.007Z,13.07
2022-10-18T09:15:19.237Z,11.70
2022-10-18T09:18:48.122Z,11.43
2022-10-18T09:21:55.594Z,11.80
2022-10-18T09:25:00.369Z,11.65
2022-10-18T09:28:33.496Z,12.55
2022-10-18T09:31:48.572Z,11.65
2022-10-18T09:35:02.118Z,11.95
2022-10-18T09:38:09.177Z,10.80
2022-10-18T09:41:26.696Z,15.35
2022-10-18T09:44:36.922Z,11.05
2022-10-18T09:47:47.835Z,9.43
2022-10-18T09:51:00.700Z,9.98
2022-10-18T09:54:11.614Z,9.63
2022-10-18T09:57:21.811Z,10.57
2022-10-18T10:00:38.714Z,9.85
2022-10-18T10:03:42.503Z,9.88
2022-10-18T10:06:50.740Z,8.63
2022-10-18T10:10:08.844Z,8.38
2022-10-18T10:13:22.672Z,8.10
2022-10-18T10:16:26.914Z,8.00
2022-10-18T10:19:32.214Z,8.02
2022-10-18T10:22:37.972Z,7.22
2022-10-18T10:25:41.104Z,8.02
2022-10-18T10:28:46.303Z,7.47
2022-10-18T10:32:02.450Z,7.60
2022-10-18T10:35:35.304Z,7.50
2022-10-18T10:38:44.678Z,7.62
2022-10-18T10:41:50.822Z,6.43
2022-10-18T10:44:55.876Z,7.90
2022-10-18T10:48:08.077Z,7.78
2022-10-18T10:51:10.827Z,8.05
2022-10-18T10:54:16.581Z,7.82
2022-10-18T10:57:25.899Z,8.00
2022-10-18T11:00:37.494Z,7.07
2022-10-18T11:03:46.845Z,6.93
2022-10-18T11:06:53.940Z,7.35
2022-10-18T11:10:11.360Z,8.00
2022-10-18T11:13:41.474Z,7.22
2022-10-18T11:17:10.524Z,7.05
2022-10-18T11:20:24.732Z,7.30
2022-10-18T11:23:34.041Z,6.40
2022-10-18T11:27:02.358Z,6.50
2022-10-18T11:30:16.778Z,6.37
2022-10-18T11:33:56.425Z,6.05
2022-10-18T11:37:32.333Z,6.57
2022-10-18T11:40:40.600Z,6.30
2022-10-18T11:44:06.939Z,6.47
2022-10-18T11:47:34.393Z,6.45
2022-10-18T11:50:48.661Z,6.57
2022-10-18T11:54:08.256Z,6.20
2022-10-18T11:57:44.652Z,5.30
2022-10-18T12:00:53.348Z,5.78
2022-10-18T12:04:07.874Z,6.45
2022-10-18T12:07:14.030Z,5.87
2022-10-18T12:10:31.405Z,5.28
2022-10-18T12:14:19.270Z,5.97
2022-10-18T12:17:49.885Z,5.65
2022-10-18T12:20:58.105Z,5.57
2022-10-18T12:24:07.826Z,5.60
2022-10-18T12:27:15.159Z,5.57
2022-10-18T12:30:42.267Z,5.75
2022-10-18T12:33:48.633Z,5.05
2022-10-18T12:37:00.881Z,5.50
2022-10-18T12:40:14.554Z,5.37
2022-10-18T12:43:32.772Z,5.68
2022-10-18T12:46:54.400Z,5.53
2022-10-18T12:50:03.130Z,6.05
2022-10-18T12:53:29.749Z,5.47
2022-10-18T12:56:37.610Z,5.28
2022-10-18T12:59:41.066Z,5.68
2022-10-18T13:02:43.379Z,5.40
2022-10-18T13:05:55.711Z,6.10
2022-10-18T13:09:31.100Z,5.25
2022-10-18T13:12:50.769Z,5.50
2022-10-18T13:16:02.538Z,5.65
2022-10-18T13:19:29.633Z,6.00
2022-10-18T13:23:00.281Z,5.47
2022-10-18T13:26:31.864Z,5.37
2022-10-18T13:29:58.652Z,5.20
2022-10-18T13:33:31.643Z,5.70
2022-10-18T13:36:33.971Z,5.80
2022-10-18T13:39:37.660Z,5.87
2022-10-18T13:42:40.044Z,5.10
2022-10-18T13:45:44.702Z,5.68
2022-10-18T13:48:59.265Z,5.47
2022-10-18T13:52:34.193Z,5.03
2022-10-18T13:55:36.618Z,6.05
2022-10-18T13:59:15.119Z,5.10
2022-10-18T14:02:59.698Z,5.40
2022-10-18T14:06:15.016Z,6.65
2022-10-18T14:09:40.270Z,6.53
2022-10-18T14:12:54.038Z,5.37
2022-10-18T14:16:05.392Z,4.70
2022-10-18T14:19:26.069Z,5.55
2022-10-18T14:23:02.614Z,4.97
2022-10-18T14:26:13.117Z,29.95
2022-10-18T14:29:20.270Z,7.78
2022-10-18T14:32:28.936Z,9.77
2022-10-18T14:35:33.786Z,6.60
2022-10-18T14:38:38.561Z,5.25
2022-10-18T14:41:49.955Z,5.18
2022-10-18T14:44:54.435Z,6.78
2022-10-18T14:48:06.489Z,5.65
2022-10-18T14:51:11.288Z,6.18
2022-10-18T14:54:36.499Z,7.60
2022-10-18T15:00:42.837Z,10.88
2022-10-18T15:03:48.102Z,7.60
2022-10-18T15:06:50.142Z,10.63
2022-10-18T15:09:53.486Z,9.80
2022-10-18T15:13:09.658Z,9.15
2022-10-18T15:16:18.322Z,5.72
2022-10-18T15:19:31.514Z,5.40
2022-10-18T15:22:34.070Z,6.35
